Girona, Spain
Current Conditions -  °F | °C
As of 10:30 AM on Saturday 29 Nov 2014 (Local Time) from LEGE Reporting Station
Overcast Overcast  
Wind Chill: 59°   Ceiling: 4500
Heat Index: 59°   Visibility: 6mi
Dew Point: 57°   Wind: 3mph
Humidity: 94%   Direction: 80°E
Pressure: 29.56"   Gusts: NA
Location:  41.98°N, 2.82°E
Report Text: LEGE 290930Z 08003KT 010V140 9999 FEW010 SCT015CB OVC045 15/14 Q1001
Loading
Personal Weather Stations






























Interactive Weather Map New forecast layout! Learn more

10-Day Weather Forecast

Advertisements
Track Severe Weather on mobile